sensor_id;sensor_type;location;lat;lon;timestamp;temperature;humidity
29007;DHT22;16104;48.642;9.008;2024-01-30T00:00:33;8.00;55.70
29007;DHT22;16104;48.642;9.008;2024-01-30T00:05:29;8.00;55.60
29007;DHT22;16104;48.642;9.008;2024-01-30T00:10:24;8.10;55.70
29007;DHT22;16104;48.642;9.008;2024-01-30T00:15:20;8.10;55.70
29007;DHT22;16104;48.642;9.008;2024-01-30T00:20:15;8.10;55.70
29007;DHT22;16104;48.642;9.008;2024-01-30T00:25:11;8.20;55.70
29007;DHT22;16104;48.642;9.008;2024-01-30T00:30:07;8.20;55.70
29007;DHT22;16104;48.642;9.008;2024-01-30T00:35:03;8.20;55.60
29007;DHT22;16104;48.642;9.008;2024-01-30T00:39:58;8.30;55.60
29007;DHT22;16104;48.642;9.008;2024-01-30T00:44:54;8.30;55.50
29007;DHT22;16104;48.642;9.008;2024-01-30T00:49:50;8.40;55.50
29007;DHT22;16104;48.642;9.008;2024-01-30T00:54:46;8.40;55.40
29007;DHT22;16104;48.642;9.008;2024-01-30T00:59:41;8.40;55.30
29007;DHT22;16104;48.642;9.008;2024-01-30T05:04:16;6.80;56.90
29007;DHT22;16104;48.642;9.008;2024-01-30T05:09:12;6.70;56.80
29007;DHT22;16104;48.642;9.008;2024-01-30T05:14:07;6.70;56.80
29007;DHT22;16104;48.642;9.008;2024-01-30T05:19:04;6.70;56.90
29007;DHT22;16104;48.642;9.008;2024-01-30T05:23:59;6.60;57.00
29007;DHT22;16104;48.642;9.008;2024-01-30T05:28:55;6.60;57.00
29007;DHT22;16104;48.642;9.008;2024-01-30T05:33:50;6.60;57.00
29007;DHT22;16104;48.642;9.008;2024-01-30T05:38:46;6.60;57.00
29007;DHT22;16104;48.642;9.008;2024-01-30T05:43:41;6.60;57.00
29007;DHT22;16104;48.642;9.008;2024-01-30T05:48:37;6.60;57.10
29007;DHT22;16104;48.642;9.008;2024-01-30T05:53:32;6.60;57.10
29007;DHT22;16104;48.642;9.008;2024-01-30T05:58:28;6.60;57.00
29007;DHT22;16104;48.642;9.008;2024-01-30T06:03:23;6.60;56.90
29007;DHT22;16104;48.642;9.008;2024-01-30T06:08:19;6.60;56.80
29007;DHT22;16104;48.642;9.008;2024-01-30T06:13:14;6.60;56.70
29007;DHT22;16104;48.642;9.008;2024-01-30T06:18:10;6.70;56.70
29007;DHT22;16104;48.642;9.008;2024-01-30T06:23:06;6.70;56.70
29007;DHT22;16104;48.642;9.008;2024-01-30T06:28:01;6.70;56.80
29007;DHT22;16104;48.642;9.008;2024-01-30T06:32:57;6.70;56.80
29007;DHT22;16104;48.642;9.008;2024-01-30T06:37:52;6.60;56.80
29007;DHT22;16104;48.642;9.008;2024-01-30T06:42:48;6.60;56.80
29007;DHT22;16104;48.642;9.008;2024-01-30T06:47:43;6.60;56.80
29007;DHT22;16104;48.642;9.008;2024-01-30T06:52:39;6.60;56.80
29007;DHT22;16104;48.642;9.008;2024-01-30T06:57:34;6.60;57.00
29007;DHT22;16104;48.642;9.008;2024-01-30T07:02:30;6.60;57.00
29007;DHT22;16104;48.642;9.008;2024-01-30T07:07:25;6.60;57.00
29007;DHT22;16104;48.642;9.008;2024-01-30T07:12:22;6.60;57.00
29007;DHT22;16104;48.642;9.008;2024-01-30T07:17:17;6.60;57.00
29007;DHT22;16104;48.642;9.008;2024-01-30T07:22:13;6.70;56.90
29007;DHT22;16104;48.642;9.008;2024-01-30T07:27:08;6.70;56.90
29007;DHT22;16104;48.642;9.008;2024-01-30T07:32:04;6.70;56.80
29007;DHT22;16104;48.642;9.008;2024-01-30T07:36:59;6.70;56.80
29007;DHT22;16104;48.642;9.008;2024-01-30T07:41:55;6.80;56.90
29007;DHT22;16104;48.642;9.008;2024-01-30T07:46:50;6.90;56.90
29007;DHT22;16104;48.642;9.008;2024-01-30T07:51:46;6.90;56.90
29007;DHT22;16104;48.642;9.008;2024-01-30T07:56:41;7.00;56.90
29007;DHT22;16104;48.642;9.008;2024-01-30T08:01:37;7.10;57.00
29007;DHT22;16104;48.642;9.008;2024-01-30T08:06:33;7.20;57.00
29007;DHT22;16104;48.642;9.008;2024-01-30T08:11:28;7.30;56.90
29007;DHT22;16104;48.642;9.008;2024-01-30T08:16:24;7.40;56.90
29007;DHT22;16104;48.642;9.008;2024-01-30T08:21:20;7.40;56.80
29007;DHT22;16104;48.642;9.008;2024-01-30T08:26:15;7.50;56.80
29007;DHT22;16104;48.642;9.008;2024-01-30T08:31:11;7.60;56.80
29007;DHT22;16104;48.642;9.008;2024-01-30T08:36:07;7.70;57.40
29007;DHT22;16104;48.642;9.008;2024-01-30T08:41:03;7.90;56.70
29007;DHT22;16104;48.642;9.008;2024-01-30T08:45:59;8.00;56.60
29007;DHT22;16104;48.642;9.008;2024-01-30T08:50:55;8.10;56.60
29007;DHT22;16104;48.642;9.008;2024-01-30T08:55:50;8.20;56.60
29007;DHT22;16104;48.642;9.008;2024-01-30T09:00:46;8.40;56.50
29007;DHT22;16104;48.642;9.008;2024-01-30T09:05:42;8.50;56.40
29007;DHT22;16104;48.642;9.008;2024-01-30T09:10:37;8.60;56.20
29007;DHT22;16104;48.642;9.008;2024-01-30T09:15:33;8.70;56.00
29007;DHT22;16104;48.642;9.008;2024-01-30T09:20:28;8.90;55.90
29007;DHT22;16104;48.642;9.008;2024-01-30T09:25:24;9.00;55.80
29007;DHT22;16104;48.642;9.008;2024-01-30T09:30:19;9.20;55.80
29007;DHT22;16104;48.642;9.008;2024-01-30T09:35:15;9.30;55.70
29007;DHT22;16104;48.642;9.008;2024-01-30T09:40:11;9.50;55.50
29007;DHT22;16104;48.642;9.008;2024-01-30T09:45:07;9.70;55.20
29007;DHT22;16104;48.642;9.008;2024-01-30T09:50:02;9.90;55.10
29007;DHT22;16104;48.642;9.008;2024-01-30T09:55:00;10.10;54.80
29007;DHT22;16104;48.642;9.008;2024-01-30T09:59:56;10.40;54.40
29007;DHT22;16104;48.642;9.008;2024-01-30T10:04:52;10.60;54.20
29007;DHT22;16104;48.642;9.008;2024-01-30T10:09:48;10.80;53.80
29007;DHT22;16104;48.642;9.008;2024-01-30T10:14:44;11.00;53.50
29007;DHT22;16104;48.642;9.008;2024-01-30T10:19:40;11.20;53.20
29007;DHT22;16104;48.642;9.008;2024-01-30T10:24:36;11.40;52.90
29007;DHT22;16104;48.642;9.008;2024-01-30T10:29:32;11.60;52.70
29007;DHT22;16104;48.642;9.008;2024-01-30T10:34:28;11.80;52.60
29007;DHT22;16104;48.642;9.008;2024-01-30T10:39:24;12.00;52.30
29007;DHT22;16104;48.642;9.008;2024-01-30T10:44:22;12.10;51.80
29007;DHT22;16104;48.642;9.008;2024-01-30T10:49:18;12.30;51.70
29007;DHT22;16104;48.642;9.008;2024-01-30T10:54:15;12.40;51.60
29007;DHT22;16104;48.642;9.008;2024-01-30T10:59:12;12.60;51.10
29007;DHT22;16104;48.642;9.008;2024-01-30T11:04:08;12.80;51.20
29007;DHT22;16104;48.642;9.008;2024-01-30T11:09:05;13.00;50.90
29007;DHT22;16104;48.642;9.008;2024-01-30T11:14:05;13.10;50.00
29007;DHT22;16104;48.642;9.008;2024-01-30T11:19:00;13.20;50.30
29007;DHT22;16104;48.642;9.008;2024-01-30T11:23:57;13.40;49.80
29007;DHT22;16104;48.642;9.008;2024-01-30T11:28:53;13.50;49.80
29007;DHT22;16104;48.642;9.008;2024-01-30T11:33:52;13.60;49.90
29007;DHT22;16104;48.642;9.008;2024-01-30T11:38:48;13.80;49.40
29007;DHT22;16104;48.642;9.008;2024-01-30T11:43:52;13.90;49.40
29007;DHT22;16104;48.642;9.008;2024-01-30T11:48:47;14.00;48.40
29007;DHT22;16104;48.642;9.008;2024-01-30T11:53:43;14.10;48.70
29007;DHT22;16104;48.642;9.008;2024-01-30T11:58:42;14.20;48.80
29007;DHT22;16104;48.642;9.008;2024-01-30T12:03:38;14.30;48.40
29007;DHT22;16104;48.642;9.008;2024-01-30T12:08:34;14.40;48.70
29007;DHT22;16104;48.642;9.008;2024-01-30T12:13:30;14.50;48.40
29007;DHT22;16104;48.642;9.008;2024-01-30T12:18:25;14.60;47.80
29007;DHT22;16104;48.642;9.008;2024-01-30T12:23:21;14.70;47.70
29007;DHT22;16104;48.642;9.008;2024-01-30T12:28:20;14.70;47.60
29007;DHT22;16104;48.642;9.008;2024-01-30T12:33:19;14.80;47.70
29007;DHT22;16104;48.642;9.008;2024-01-30T12:38:15;14.90;47.30
29007;DHT22;16104;48.642;9.008;2024-01-30T12:43:11;15.00;47.50
29007;DHT22;16104;48.642;9.008;2024-01-30T12:48:07;15.10;46.90
29007;DHT22;16104;48.642;9.008;2024-01-30T12:53:02;15.30;46.80
29007;DHT22;16104;48.642;9.008;2024-01-30T12:57:58;15.40;46.70
29007;DHT22;16104;48.642;9.008;2024-01-30T13:02:54;15.50;46.60
29007;DHT22;16104;48.642;9.008;2024-01-30T13:07:50;15.60;46.80
29007;DHT22;16104;48.642;9.008;2024-01-30T13:12:45;15.80;46.50
29007;DHT22;16104;48.642;9.008;2024-01-30T13:17:41;16.00;46.50
29007;DHT22;16104;48.642;9.008;2024-01-30T13:22:38;16.30;46.20
29007;DHT22;16104;48.642;9.008;2024-01-30T13:27:34;16.40;45.50
29007;DHT22;16104;48.642;9.008;2024-01-30T13:32:29;16.60;45.40
29007;DHT22;16104;48.642;9.008;2024-01-30T13:37:25;16.60;44.80
29007;DHT22;16104;48.642;9.008;2024-01-30T13:42:20;16.70;45.00
29007;DHT22;16104;48.642;9.008;2024-01-30T13:47:16;16.80;44.90
29007;DHT22;16104;48.642;9.008;2024-01-30T13:52:11;16.90;44.30
29007;DHT22;16104;48.642;9.008;2024-01-30T13:57:07;16.90;44.30
29007;DHT22;16104;48.642;9.008;2024-01-30T14:02:04;16.80;43.90
29007;DHT22;16104;48.642;9.008;2024-01-30T14:06:59;16.80;43.90
29007;DHT22;16104;48.642;9.008;2024-01-30T14:11:55;16.70;44.10
29007;DHT22;16104;48.642;9.008;2024-01-30T14:16:50;16.70;44.40
29007;DHT22;16104;48.642;9.008;2024-01-30T14:21:46;16.70;44.80
29007;DHT22;16104;48.642;9.008;2024-01-30T14:26:41;16.80;44.70
29007;DHT22;16104;48.642;9.008;2024-01-30T14:31:38;16.80;45.50
29007;DHT22;16104;48.642;9.008;2024-01-30T14:36:33;16.80;44.80
29007;DHT22;16104;48.642;9.008;2024-01-30T14:41:29;16.80;44.60
29007;DHT22;16104;48.642;9.008;2024-01-30T14:46:25;16.80;44.40
29007;DHT22;16104;48.642;9.008;2024-01-30T14:51:22;16.80;44.20
29007;DHT22;16104;48.642;9.008;2024-01-30T14:56:17;16.70;44.50
29007;DHT22;16104;48.642;9.008;2024-01-30T15:01:13;16.70;44.40
29007;DHT22;16104;48.642;9.008;2024-01-30T15:06:09;16.60;44.80
29007;DHT22;16104;48.642;9.008;2024-01-30T15:11:04;16.40;45.00
29007;DHT22;16104;48.642;9.008;2024-01-30T15:16:00;16.30;45.10
29007;DHT22;16104;48.642;9.008;2024-01-30T15:20:58;16.20;45.30
29007;DHT22;16104;48.642;9.008;2024-01-30T15:25:54;16.20;45.50
29007;DHT22;16104;48.642;9.008;2024-01-30T15:30:49;16.10;45.70
29007;DHT22;16104;48.642;9.008;2024-01-30T15:35:45;16.00;45.90
29007;DHT22;16104;48.642;9.008;2024-01-30T15:40:40;15.90;46.10
29007;DHT22;16104;48.642;9.008;2024-01-30T15:45:35;15.80;46.40
29007;DHT22;16104;48.642;9.008;2024-01-30T15:50:31;15.70;46.70
29007;DHT22;16104;48.642;9.008;2024-01-30T15:55:27;15.60;46.80
29007;DHT22;16104;48.642;9.008;2024-01-30T16:00:23;15.40;47.00
29007;DHT22;16104;48.642;9.008;2024-01-30T16:05:18;15.30;47.00
29007;DHT22;16104;48.642;9.008;2024-01-30T16:10:14;15.20;47.20
29007;DHT22;16104;48.642;9.008;2024-01-30T16:15:15;15.10;47.40
29007;DHT22;16104;48.642;9.008;2024-01-30T16:20:10;15.00;47.60
29007;DHT22;16104;48.642;9.008;2024-01-30T16:25:06;14.90;47.70
29007;DHT22;16104;48.642;9.008;2024-01-30T16:30:02;14.80;47.80
29007;DHT22;16104;48.642;9.008;2024-01-30T16:34:59;14.70;48.00
29007;DHT22;16104;48.642;9.008;2024-01-30T16:39:54;14.60;48.10
29007;DHT22;16104;48.642;9.008;2024-01-30T16:44:50;14.50;48.40
29007;DHT22;16104;48.642;9.008;2024-01-30T16:49:45;14.40;48.40
29007;DHT22;16104;48.642;9.008;2024-01-30T16:54:41;14.30;48.60
29007;DHT22;16104;48.642;9.008;2024-01-30T16:59:36;14.30;48.90
29007;DHT22;16104;48.642;9.008;2024-01-30T17:04:32;14.10;49.00
29007;DHT22;16104;48.642;9.008;2024-01-30T17:09:28;14.10;49.20
29007;DHT22;16104;48.642;9.008;2024-01-30T17:14:24;14.00;49.30
29007;DHT22;16104;48.642;9.008;2024-01-30T17:19:19;14.00;49.50
29007;DHT22;16104;48.642;9.008;2024-01-30T17:24:15;13.90;49.60
29007;DHT22;16104;48.642;9.008;2024-01-30T17:29:11;13.80;49.70
29007;DHT22;16104;48.642;9.008;2024-01-30T17:34:07;13.80;49.80
29007;DHT22;16104;48.642;9.008;2024-01-30T17:39:02;13.70;49.90
29007;DHT22;16104;48.642;9.008;2024-01-30T17:43:58;13.70;50.00
29007;DHT22;16104;48.642;9.008;2024-01-30T17:48:53;13.60;50.10
29007;DHT22;16104;48.642;9.008;2024-01-30T17:53:49;13.60;50.30
29007;DHT22;16104;48.642;9.008;2024-01-30T17:58:46;13.50;50.40
29007;DHT22;16104;48.642;9.008;2024-01-30T18:03:41;13.40;50.40
29007;DHT22;16104;48.642;9.008;2024-01-30T18:08:37;13.40;50.50
29007;DHT22;16104;48.642;9.008;2024-01-30T18:13:32;13.30;50.60
29007;DHT22;16104;48.642;9.008;2024-01-30T18:18:28;13.30;50.70
29007;DHT22;16104;48.642;9.008;2024-01-30T18:23:23;13.30;50.80
29007;DHT22;16104;48.642;9.008;2024-01-30T18:28:19;13.20;51.00
29007;DHT22;16104;48.642;9.008;2024-01-30T18:33:14;13.20;51.10
29007;DHT22;16104;48.642;9.008;2024-01-30T18:38:10;13.10;51.30
29007;DHT22;16104;48.642;9.008;2024-01-30T18:43:05;13.10;51.40
29007;DHT22;16104;48.642;9.008;2024-01-30T18:48:02;13.00;51.50
29007;DHT22;16104;48.642;9.008;2024-01-30T18:52:57;13.00;51.60
29007;DHT22;16104;48.642;9.008;2024-01-30T18:57:53;12.90;51.70
29007;DHT22;16104;48.642;9.008;2024-01-30T19:02:48;12.90;51.90
29007;DHT22;16104;48.642;9.008;2024-01-30T19:07:44;12.90;52.00
29007;DHT22;16104;48.642;9.008;2024-01-30T19:12:39;12.80;52.20
29007;DHT22;16104;48.642;9.008;2024-01-30T19:17:36;12.80;52.90
29007;DHT22;16104;48.642;9.008;2024-01-30T19:22:32;12.80;52.40
29007;DHT22;16104;48.642;9.008;2024-01-30T19:27:28;12.70;52.50
29007;DHT22;16104;48.642;9.008;2024-01-30T19:32:24;12.70;52.60
29007;DHT22;16104;48.642;9.008;2024-01-30T19:37:20;12.70;52.70
29007;DHT22;16104;48.642;9.008;2024-01-30T19:42:20;12.60;52.70
29007;DHT22;16104;48.642;9.008;2024-01-30T19:47:15;12.70;52.70
29007;DHT22;16104;48.642;9.008;2024-01-30T19:52:12;12.70;52.70
29007;DHT22;16104;48.642;9.008;2024-01-30T19:57:09;12.60;52.90
29007;DHT22;16104;48.642;9.008;2024-01-30T20:02:05;12.60;52.90
29007;DHT22;16104;48.642;9.008;2024-01-30T20:07:01;12.60;53.00
29007;DHT22;16104;48.642;9.008;2024-01-30T20:11:56;12.60;53.10
29007;DHT22;16104;48.642;9.008;2024-01-30T20:16:52;12.50;53.10
29007;DHT22;16104;48.642;9.008;2024-01-30T20:21:47;12.50;53.10
29007;DHT22;16104;48.642;9.008;2024-01-30T20:26:43;12.50;53.20
29007;DHT22;16104;48.642;9.008;2024-01-30T20:31:39;12.50;53.50
29007;DHT22;16104;48.642;9.008;2024-01-30T20:36:34;12.40;53.40
29007;DHT22;16104;48.642;9.008;2024-01-30T20:41:37;12.30;53.60
29007;DHT22;16104;48.642;9.008;2024-01-30T20:46:33;12.30;53.80
29007;DHT22;16104;48.642;9.008;2024-01-30T20:51:29;12.30;53.80
29007;DHT22;16104;48.642;9.008;2024-01-30T20:56:24;12.20;53.80
29007;DHT22;16104;48.642;9.008;2024-01-30T21:01:20;12.20;53.90
29007;DHT22;16104;48.642;9.008;2024-01-30T21:06:15;12.10;53.90
29007;DHT22;16104;48.642;9.008;2024-01-30T21:11:11;12.00;53.90
29007;DHT22;16104;48.642;9.008;2024-01-30T21:16:07;12.00;54.10
29007;DHT22;16104;48.642;9.008;2024-01-30T21:21:02;11.90;54.10
29007;DHT22;16104;48.642;9.008;2024-01-30T21:25:58;11.80;54.30
29007;DHT22;16104;48.642;9.008;2024-01-30T21:30:53;11.80;54.40
29007;DHT22;16104;48.642;9.008;2024-01-30T21:35:49;11.70;54.50
29007;DHT22;16104;48.642;9.008;2024-01-30T21:40:44;11.70;54.60
29007;DHT22;16104;48.642;9.008;2024-01-30T21:45:40;11.70;54.70
29007;DHT22;16104;48.642;9.008;2024-01-30T21:50:35;11.60;54.80
29007;DHT22;16104;48.642;9.008;2024-01-30T21:55:31;11.50;54.80
29007;DHT22;16104;48.642;9.008;2024-01-30T22:00:26;11.50;54.90
29007;DHT22;16104;48.642;9.008;2024-01-30T22:05:22;11.40;55.00
29007;DHT22;16104;48.642;9.008;2024-01-30T22:10:17;11.20;55.00
29007;DHT22;16104;48.642;9.008;2024-01-30T22:15:13;11.20;55.20
29007;DHT22;16104;48.642;9.008;2024-01-30T22:20:08;11.20;55.40
29007;DHT22;16104;48.642;9.008;2024-01-30T22:25:05;11.10;55.50
29007;DHT22;16104;48.642;9.008;2024-01-30T22:30:00;11.10;55.70
29007;DHT22;16104;48.642;9.008;2024-01-30T22:34:56;11.10;55.80
29007;DHT22;16104;48.642;9.008;2024-01-30T22:39:51;11.00;55.80
29007;DHT22;16104;48.642;9.008;2024-01-30T22:44:47;11.10;56.00
29007;DHT22;16104;48.642;9.008;2024-01-30T22:49:42;11.00;56.00
29007;DHT22;16104;48.642;9.008;2024-01-30T22:54:38;11.10;56.20
29007;DHT22;16104;48.642;9.008;2024-01-30T22:59:33;11.10;56.20
29007;DHT22;16104;48.642;9.008;2024-01-30T23:04:29;11.00;56.20
29007;DHT22;16104;48.642;9.008;2024-01-30T23:09:24;11.00;56.30
29007;DHT22;16104;48.642;9.008;2024-01-30T23:14:19;11.00;56.40
29007;DHT22;16104;48.642;9.008;2024-01-30T23:19:15;11.00;56.50
29007;DHT22;16104;48.642;9.008;2024-01-30T23:24:11;11.00;56.50
29007;DHT22;16104;48.642;9.008;2024-01-30T23:29:07;11.00;56.60
29007;DHT22;16104;48.642;9.008;2024-01-30T23:34:02;11.00;56.70
29007;DHT22;16104;48.642;9.008;2024-01-30T23:38:58;11.00;56.70
29007;DHT22;16104;48.642;9.008;2024-01-30T23:43:53;11.00;56.70
29007;DHT22;16104;48.642;9.008;2024-01-30T23:48:49;11.00;56.80
29007;DHT22;16104;48.642;9.008;2024-01-30T23:53:44;11.00;56.80
29007;DHT22;16104;48.642;9.008;2024-01-30T23:58:40;11.00;57.00
